sensor_id;sensor_type;location;lat;lon;timestamp;temperature;humidity
13892;DHT22;7016;48.172;8.058;2024-02-21T00:02:21;6.40;99.90
13892;DHT22;7016;48.172;8.058;2024-02-21T00:05:09;6.50;99.90
13892;DHT22;7016;48.172;8.058;2024-02-21T00:07:55;6.40;99.90
13892;DHT22;7016;48.172;8.058;2024-02-21T00:10:41;6.40;99.90
13892;DHT22;7016;48.172;8.058;2024-02-21T00:13:28;6.30;99.90
13892;DHT22;7016;48.172;8.058;2024-02-21T00:16:14;6.30;99.90
13892;DHT22;7016;48.172;8.058;2024-02-21T00:19:02;6.30;99.90
13892;DHT22;7016;48.172;8.058;2024-02-21T00:21:48;6.10;99.90
13892;DHT22;7016;48.172;8.058;2024-02-21T00:24:35;5.90;99.90
13892;DHT22;7016;48.172;8.058;2024-02-21T00:27:21;5.70;99.90
13892;DHT22;7016;48.172;8.058;2024-02-21T00:30:07;5.90;99.90
13892;DHT22;7016;48.172;8.058;2024-02-21T00:32:54;5.90;99.90
13892;DHT22;7016;48.172;8.058;2024-02-21T00:35:42;6.00;99.90
13892;DHT22;7016;48.172;8.058;2024-02-21T00:38:30;6.00;99.90
13892;DHT22;7016;48.172;8.058;2024-02-21T00:41:16;6.20;99.90
13892;DHT22;7016;48.172;8.058;2024-02-21T00:44:02;6.20;99.90
13892;DHT22;7016;48.172;8.058;2024-02-21T00:46:51;6.30;99.90
13892;DHT22;7016;48.172;8.058;2024-02-21T00:49:38;6.30;99.90
13892;DHT22;7016;48.172;8.058;2024-02-21T00:52:24;6.30;99.90
13892;DHT22;7016;48.172;8.058;2024-02-21T00:55:10;6.40;99.90
13892;DHT22;7016;48.172;8.058;2024-02-21T00:57:57;6.50;99.90
13892;DHT22;7016;48.172;8.058;2024-02-21T01:00:43;6.40;99.90
13892;DHT22;7016;48.172;8.058;2024-02-21T01:03:29;6.30;99.90
13892;DHT22;7016;48.172;8.058;2024-02-21T01:06:15;6.40;99.90
13892;DHT22;7016;48.172;8.058;2024-02-21T01:09:01;6.40;99.90
13892;DHT22;7016;48.172;8.058;2024-02-21T01:11:48;6.40;99.90
13892;DHT22;7016;48.172;8.058;2024-02-21T01:14:34;6.50;99.90
13892;DHT22;7016;48.172;8.058;2024-02-21T01:17:20;6.30;99.90
13892;DHT22;7016;48.172;8.058;2024-02-21T01:20:07;6.40;99.90
13892;DHT22;7016;48.172;8.058;2024-02-21T01:22:53;6.60;99.90
13892;DHT22;7016;48.172;8.058;2024-02-21T01:25:39;6.50;99.90
13892;DHT22;7016;48.172;8.058;2024-02-21T01:28:26;6.50;99.90
13892;DHT22;7016;48.172;8.058;2024-02-21T01:31:12;6.30;99.90
13892;DHT22;7016;48.172;8.058;2024-02-21T01:33:59;6.50;99.90
13892;DHT22;7016;48.172;8.058;2024-02-21T01:36:45;6.50;99.90
13892;DHT22;7016;48.172;8.058;2024-02-21T01:39:31;6.40;99.90
13892;DHT22;7016;48.172;8.058;2024-02-21T01:42:17;6.40;99.90
13892;DHT22;7016;48.172;8.058;2024-02-21T01:45:04;6.40;99.90
13892;DHT22;7016;48.172;8.058;2024-02-21T01:47:50;6.60;99.90
13892;DHT22;7016;48.172;8.058;2024-02-21T01:50:39;6.40;99.90
13892;DHT22;7016;48.172;8.058;2024-02-21T01:53:30;6.50;99.90
13892;DHT22;7016;48.172;8.058;2024-02-21T01:56:17;6.30;99.90
13892;DHT22;7016;48.172;8.058;2024-02-21T01:59:03;6.30;99.90
13892;DHT22;7016;48.172;8.058;2024-02-21T02:01:51;5.90;99.90
13892;DHT22;7016;48.172;8.058;2024-02-21T02:04:38;5.80;99.90
13892;DHT22;7016;48.172;8.058;2024-02-21T02:07:25;6.00;99.90
13892;DHT22;7016;48.172;8.058;2024-02-21T02:10:14;6.20;99.90
13892;DHT22;7016;48.172;8.058;2024-02-21T02:13:05;6.40;99.90
13892;DHT22;7016;48.172;8.058;2024-02-21T02:15:52;6.40;99.90
13892;DHT22;7016;48.172;8.058;2024-02-21T02:18:38;6.30;99.90
13892;DHT22;7016;48.172;8.058;2024-02-21T02:21:35;6.30;99.90
13892;DHT22;7016;48.172;8.058;2024-02-21T02:24:24;6.30;99.90
13892;DHT22;7016;48.172;8.058;2024-02-21T02:27:11;6.20;99.90
13892;DHT22;7016;48.172;8.058;2024-02-21T02:29:58;6.30;99.90
13892;DHT22;7016;48.172;8.058;2024-02-21T02:32:45;6.20;99.90
13892;DHT22;7016;48.172;8.058;2024-02-21T02:35:37;6.20;99.90
13892;DHT22;7016;48.172;8.058;2024-02-21T02:38:23;6.20;99.90
13892;DHT22;7016;48.172;8.058;2024-02-21T02:41:09;6.20;99.90
13892;DHT22;7016;48.172;8.058;2024-02-21T02:43:55;6.20;99.90
13892;DHT22;7016;48.172;8.058;2024-02-21T02:46:42;6.10;99.90
13892;DHT22;7016;48.172;8.058;2024-02-21T02:49:28;6.00;99.90
13892;DHT22;7016;48.172;8.058;2024-02-21T02:52:15;6.20;99.90
13892;DHT22;7016;48.172;8.058;2024-02-21T02:55:04;6.30;99.90
13892;DHT22;7016;48.172;8.058;2024-02-21T02:57:50;6.20;99.90
13892;DHT22;7016;48.172;8.058;2024-02-21T03:00:37;6.30;99.90
13892;DHT22;7016;48.172;8.058;2024-02-21T03:03:25;6.30;99.90
13892;DHT22;7016;48.172;8.058;2024-02-21T03:06:12;6.30;99.90
13892;DHT22;7016;48.172;8.058;2024-02-21T03:09:01;6.30;99.90
13892;DHT22;7016;48.172;8.058;2024-02-21T03:11:47;6.20;99.90
13892;DHT22;7016;48.172;8.058;2024-02-21T03:14:33;6.20;99.90
13892;DHT22;7016;48.172;8.058;2024-02-21T03:17:20;6.30;99.90
13892;DHT22;7016;48.172;8.058;2024-02-21T03:20:07;6.30;99.90
13892;DHT22;7016;48.172;8.058;2024-02-21T03:22:56;6.30;99.90
13892;DHT22;7016;48.172;8.058;2024-02-21T03:25:42;6.30;99.90
13892;DHT22;7016;48.172;8.058;2024-02-21T03:28:28;6.30;99.90
13892;DHT22;7016;48.172;8.058;2024-02-21T03:31:14;6.20;99.90
13892;DHT22;7016;48.172;8.058;2024-02-21T03:34:01;6.30;99.90
13892;DHT22;7016;48.172;8.058;2024-02-21T03:36:47;6.50;99.90
13892;DHT22;7016;48.172;8.058;2024-02-21T03:39:33;6.40;99.90
13892;DHT22;7016;48.172;8.058;2024-02-21T03:42:19;6.30;99.90
13892;DHT22;7016;48.172;8.058;2024-02-21T03:45:06;6.20;99.90
13892;DHT22;7016;48.172;8.058;2024-02-21T03:47:52;6.10;99.90
13892;DHT22;7016;48.172;8.058;2024-02-21T03:50:39;6.00;99.90
13892;DHT22;7016;48.172;8.058;2024-02-21T03:53:25;6.20;99.90
13892;DHT22;7016;48.172;8.058;2024-02-21T03:56:11;6.00;99.90
13892;DHT22;7016;48.172;8.058;2024-02-21T03:58:58;6.00;99.90
13892;DHT22;7016;48.172;8.058;2024-02-21T04:01:44;6.00;99.90
13892;DHT22;7016;48.172;8.058;2024-02-21T04:04:30;6.00;99.90
13892;DHT22;7016;48.172;8.058;2024-02-21T04:07:16;5.90;99.90
13892;DHT22;7016;48.172;8.058;2024-02-21T04:10:03;6.00;99.90
13892;DHT22;7016;48.172;8.058;2024-02-21T04:12:49;6.00;99.90
13892;DHT22;7016;48.172;8.058;2024-02-21T04:15:36;5.90;99.90
13892;DHT22;7016;48.172;8.058;2024-02-21T04:18:22;6.00;99.90
13892;DHT22;7016;48.172;8.058;2024-02-21T04:21:09;6.00;99.90
13892;DHT22;7016;48.172;8.058;2024-02-21T04:23:56;6.00;99.90
13892;DHT22;7016;48.172;8.058;2024-02-21T04:26:42;6.00;99.90
13892;DHT22;7016;48.172;8.058;2024-02-21T04:29:29;6.00;99.90
13892;DHT22;7016;48.172;8.058;2024-02-21T04:32:15;6.00;99.90
13892;DHT22;7016;48.172;8.058;2024-02-21T04:35:01;6.10;99.90
13892;DHT22;7016;48.172;8.058;2024-02-21T04:37:49;6.00;99.90
13892;DHT22;7016;48.172;8.058;2024-02-21T04:40:35;6.10;99.90
13892;DHT22;7016;48.172;8.058;2024-02-21T04:43:21;5.70;99.90
13892;DHT22;7016;48.172;8.058;2024-02-21T04:46:08;5.50;99.90
13892;DHT22;7016;48.172;8.058;2024-02-21T04:48:54;5.50;99.90
13892;DHT22;7016;48.172;8.058;2024-02-21T04:51:41;5.60;99.90
13892;DHT22;7016;48.172;8.058;2024-02-21T04:54:27;5.80;99.90
13892;DHT22;7016;48.172;8.058;2024-02-21T04:57:17;5.80;99.90
13892;DHT22;7016;48.172;8.058;2024-02-21T05:00:05;5.90;99.90
13892;DHT22;7016;48.172;8.058;2024-02-21T05:02:51;5.70;99.90
13892;DHT22;7016;48.172;8.058;2024-02-21T05:05:37;5.80;99.90
13892;DHT22;7016;48.172;8.058;2024-02-21T05:08:23;5.70;99.90
13892;DHT22;7016;48.172;8.058;2024-02-21T05:11:10;5.70;99.90
13892;DHT22;7016;48.172;8.058;2024-02-21T05:13:56;5.50;99.90
13892;DHT22;7016;48.172;8.058;2024-02-21T05:16:42;5.50;99.90
13892;DHT22;7016;48.172;8.058;2024-02-21T05:19:28;5.50;99.90
13892;DHT22;7016;48.172;8.058;2024-02-21T05:22:14;5.50;99.90
13892;DHT22;7016;48.172;8.058;2024-02-21T05:25:00;5.50;99.90
13892;DHT22;7016;48.172;8.058;2024-02-21T05:27:47;5.50;99.90
13892;DHT22;7016;48.172;8.058;2024-02-21T05:30:34;5.60;99.90
13892;DHT22;7016;48.172;8.058;2024-02-21T05:33:20;5.60;99.90
13892;DHT22;7016;48.172;8.058;2024-02-21T05:36:10;5.10;99.90
13892;DHT22;7016;48.172;8.058;2024-02-21T05:38:56;5.00;99.90
13892;DHT22;7016;48.172;8.058;2024-02-21T05:41:43;4.90;99.90
13892;DHT22;7016;48.172;8.058;2024-02-21T05:44:29;5.20;99.90
13892;DHT22;7016;48.172;8.058;2024-02-21T05:47:15;5.20;99.90
13892;DHT22;7016;48.172;8.058;2024-02-21T05:50:02;5.20;99.90
13892;DHT22;7016;48.172;8.058;2024-02-21T05:52:51;5.20;99.90
13892;DHT22;7016;48.172;8.058;2024-02-21T05:55:40;5.20;99.90
13892;DHT22;7016;48.172;8.058;2024-02-21T05:58:29;5.20;99.90
13892;DHT22;7016;48.172;8.058;2024-02-21T06:01:17;5.10;99.90
13892;DHT22;7016;48.172;8.058;2024-02-21T06:04:03;5.10;99.90
13892;DHT22;7016;48.172;8.058;2024-02-21T06:06:50;5.10;99.90
13892;DHT22;7016;48.172;8.058;2024-02-21T06:09:37;5.10;99.90
13892;DHT22;7016;48.172;8.058;2024-02-21T06:12:23;5.30;99.90
13892;DHT22;7016;48.172;8.058;2024-02-21T06:15:09;5.20;99.90
13892;DHT22;7016;48.172;8.058;2024-02-21T06:17:55;5.20;99.90
13892;DHT22;7016;48.172;8.058;2024-02-21T06:20:41;5.20;99.90
13892;DHT22;7016;48.172;8.058;2024-02-21T06:23:29;5.20;99.90
13892;DHT22;7016;48.172;8.058;2024-02-21T06:26:15;5.10;99.90
13892;DHT22;7016;48.172;8.058;2024-02-21T06:29:01;5.10;99.90
13892;DHT22;7016;48.172;8.058;2024-02-21T06:31:48;5.10;99.90
13892;DHT22;7016;48.172;8.058;2024-02-21T06:34:38;5.20;99.90
13892;DHT22;7016;48.172;8.058;2024-02-21T06:37:24;5.20;99.90
13892;DHT22;7016;48.172;8.058;2024-02-21T06:40:13;5.00;99.90
13892;DHT22;7016;48.172;8.058;2024-02-21T06:43:04;5.00;99.90
13892;DHT22;7016;48.172;8.058;2024-02-21T06:45:50;5.10;99.90
13892;DHT22;7016;48.172;8.058;2024-02-21T06:48:37;5.10;99.90
13892;DHT22;7016;48.172;8.058;2024-02-21T06:51:23;5.10;99.90
13892;DHT22;7016;48.172;8.058;2024-02-21T06:54:11;4.90;99.90
13892;DHT22;7016;48.172;8.058;2024-02-21T06:56:57;4.90;99.90
13892;DHT22;7016;48.172;8.058;2024-02-21T06:59:43;5.00;99.90
13892;DHT22;7016;48.172;8.058;2024-02-21T07:02:29;5.30;99.90
13892;DHT22;7016;48.172;8.058;2024-02-21T07:05:15;5.10;99.90
13892;DHT22;7016;48.172;8.058;2024-02-21T07:08:02;4.90;99.90
13892;DHT22;7016;48.172;8.058;2024-02-21T07:10:49;4.70;99.90
13892;DHT22;7016;48.172;8.058;2024-02-21T07:13:35;4.60;99.90
13892;DHT22;7016;48.172;8.058;2024-02-21T07:16:21;4.70;99.90
13892;DHT22;7016;48.172;8.058;2024-02-21T07:19:08;4.80;99.90
13892;DHT22;7016;48.172;8.058;2024-02-21T07:21:54;4.90;99.90
13892;DHT22;7016;48.172;8.058;2024-02-21T07:24:40;4.80;99.90
13892;DHT22;7016;48.172;8.058;2024-02-21T07:27:38;4.90;99.90
13892;DHT22;7016;48.172;8.058;2024-02-21T07:30:33;4.90;99.90
13892;DHT22;7016;48.172;8.058;2024-02-21T07:33:19;5.10;99.90
13892;DHT22;7016;48.172;8.058;2024-02-21T07:36:10;5.30;99.90
13892;DHT22;7016;48.172;8.058;2024-02-21T07:38:57;5.30;99.90
13892;DHT22;7016;48.172;8.058;2024-02-21T07:41:43;5.30;99.90
13892;DHT22;7016;48.172;8.058;2024-02-21T07:44:32;5.40;99.90
13892;DHT22;7016;48.172;8.058;2024-02-21T07:47:18;5.60;99.90
13892;DHT22;7016;48.172;8.058;2024-02-21T07:50:05;5.50;99.90
13892;DHT22;7016;48.172;8.058;2024-02-21T07:52:51;5.20;99.90
13892;DHT22;7016;48.172;8.058;2024-02-21T07:55:37;5.10;99.90
13892;DHT22;7016;48.172;8.058;2024-02-21T07:58:24;5.20;99.90
13892;DHT22;7016;48.172;8.058;2024-02-21T08:01:10;5.10;99.90
13892;DHT22;7016;48.172;8.058;2024-02-21T08:03:56;5.20;99.90
13892;DHT22;7016;48.172;8.058;2024-02-21T08:06:43;5.60;99.90
13892;DHT22;7016;48.172;8.058;2024-02-21T08:09:31;5.60;99.90
13892;DHT22;7016;48.172;8.058;2024-02-21T08:12:17;5.70;99.90
13892;DHT22;7016;48.172;8.058;2024-02-21T08:15:03;5.80;99.90
13892;DHT22;7016;48.172;8.058;2024-02-21T08:17:50;5.80;99.90
13892;DHT22;7016;48.172;8.058;2024-02-21T08:20:36;5.80;99.90
13892;DHT22;7016;48.172;8.058;2024-02-21T08:23:24;6.10;99.90
13892;DHT22;7016;48.172;8.058;2024-02-21T08:26:10;6.30;99.90
13892;DHT22;7016;48.172;8.058;2024-02-21T08:28:57;6.30;99.90
13892;DHT22;7016;48.172;8.058;2024-02-21T08:31:45;6.30;99.90
13892;DHT22;7016;48.172;8.058;2024-02-21T08:34:31;6.40;99.90
13892;DHT22;7016;48.172;8.058;2024-02-21T08:37:20;6.60;99.90
13892;DHT22;7016;48.172;8.058;2024-02-21T08:40:06;6.60;99.90
13892;DHT22;7016;48.172;8.058;2024-02-21T08:42:54;6.70;99.90
13892;DHT22;7016;48.172;8.058;2024-02-21T08:45:40;6.80;99.90
13892;DHT22;7016;48.172;8.058;2024-02-21T08:48:29;6.80;99.90
13892;DHT22;7016;48.172;8.058;2024-02-21T08:51:15;6.70;99.90
13892;DHT22;7016;48.172;8.058;2024-02-21T08:54:01;6.60;99.90
13892;DHT22;7016;48.172;8.058;2024-02-21T08:56:48;6.50;99.90
13892;DHT22;7016;48.172;8.058;2024-02-21T08:59:34;6.70;99.90
13892;DHT22;7016;48.172;8.058;2024-02-21T09:02:20;7.00;99.90
13892;DHT22;7016;48.172;8.058;2024-02-21T09:05:09;7.00;99.90
13892;DHT22;7016;48.172;8.058;2024-02-21T09:07:55;7.00;99.90
13892;DHT22;7016;48.172;8.058;2024-02-21T09:10:41;7.00;99.90
13892;DHT22;7016;48.172;8.058;2024-02-21T09:13:27;7.00;99.90
13892;DHT22;7016;48.172;8.058;2024-02-21T09:16:14;7.20;99.90
13892;DHT22;7016;48.172;8.058;2024-02-21T09:19:00;7.20;99.90
13892;DHT22;7016;48.172;8.058;2024-02-21T09:21:47;7.30;99.90
13892;DHT22;7016;48.172;8.058;2024-02-21T09:24:34;7.40;99.90
13892;DHT22;7016;48.172;8.058;2024-02-21T09:27:20;7.50;99.90
13892;DHT22;7016;48.172;8.058;2024-02-21T09:30:06;7.60;99.90
13892;DHT22;7016;48.172;8.058;2024-02-21T09:32:53;7.50;99.90
13892;DHT22;7016;48.172;8.058;2024-02-21T09:35:39;7.50;99.90
13892;DHT22;7016;48.172;8.058;2024-02-21T09:38:25;7.70;99.90
13892;DHT22;7016;48.172;8.058;2024-02-21T09:41:21;7.80;99.90
13892;DHT22;7016;48.172;8.058;2024-02-21T09:44:10;7.90;99.90
13892;DHT22;7016;48.172;8.058;2024-02-21T09:47:03;8.10;99.90
13892;DHT22;7016;48.172;8.058;2024-02-21T09:49:52;8.10;99.90
13892;DHT22;7016;48.172;8.058;2024-02-21T09:52:40;8.20;99.90
13892;DHT22;7016;48.172;8.058;2024-02-21T09:55:27;8.30;99.90
13892;DHT22;7016;48.172;8.058;2024-02-21T09:58:13;8.30;99.90
13892;DHT22;7016;48.172;8.058;2024-02-21T10:01:00;8.30;99.90
13892;DHT22;7016;48.172;8.058;2024-02-21T10:03:51;8.30;99.90
13892;DHT22;7016;48.172;8.058;2024-02-21T10:06:37;8.40;99.90
13892;DHT22;7016;48.172;8.058;2024-02-21T10:09:26;8.40;99.90
13892;DHT22;7016;48.172;8.058;2024-02-21T10:12:15;8.50;99.90
13892;DHT22;7016;48.172;8.058;2024-02-21T10:15:06;8.50;99.90
13892;DHT22;7016;48.172;8.058;2024-02-21T10:18:00;8.60;99.90
13892;DHT22;7016;48.172;8.058;2024-02-21T10:20:46;8.60;99.90
13892;DHT22;7016;48.172;8.058;2024-02-21T10:23:45;8.60;99.90
13892;DHT22;7016;48.172;8.058;2024-02-21T10:26:32;8.70;99.90
13892;DHT22;7016;48.172;8.058;2024-02-21T10:29:28;8.80;99.90
13892;DHT22;7016;48.172;8.058;2024-02-21T10:32:16;8.90;99.90
13892;DHT22;7016;48.172;8.058;2024-02-21T10:35:03;9.00;99.90
13892;DHT22;7016;48.172;8.058;2024-02-21T10:37:56;9.00;99.90
13892;DHT22;7016;48.172;8.058;2024-02-21T10:40:42;9.10;99.90
13892;DHT22;7016;48.172;8.058;2024-02-21T10:43:30;9.20;99.90
13892;DHT22;7016;48.172;8.058;2024-02-21T10:46:23;9.40;99.90
13892;DHT22;7016;48.172;8.058;2024-02-21T10:49:26;9.40;99.90
13892;DHT22;7016;48.172;8.058;2024-02-21T10:52:42;9.40;99.90
13892;DHT22;7016;48.172;8.058;2024-02-21T10:55:38;9.50;99.90
13892;DHT22;7016;48.172;8.058;2024-02-21T10:58:26;9.60;99.90
13892;DHT22;7016;48.172;8.058;2024-02-21T11:01:16;9.60;99.90
13892;DHT22;7016;48.172;8.058;2024-02-21T11:04:05;9.70;99.90
13892;DHT22;7016;48.172;8.058;2024-02-21T11:06:52;9.80;99.90
13892;DHT22;7016;48.172;8.058;2024-02-21T11:09:38;9.80;99.90
13892;DHT22;7016;48.172;8.058;2024-02-21T11:12:25;9.90;99.90
13892;DHT22;7016;48.172;8.058;2024-02-21T11:15:12;9.90;99.90
13892;DHT22;7016;48.172;8.058;2024-02-21T11:17:58;10.00;99.90
13892;DHT22;7016;48.172;8.058;2024-02-21T11:20:49;10.10;99.90
13892;DHT22;7016;48.172;8.058;2024-02-21T11:23:37;10.20;99.90
13892;DHT22;7016;48.172;8.058;2024-02-21T11:26:23;10.40;99.90
13892;DHT22;7016;48.172;8.058;2024-02-21T11:29:23;10.40;99.90
13892;DHT22;7016;48.172;8.058;2024-02-21T11:32:14;10.50;99.90
13892;DHT22;7016;48.172;8.058;2024-02-21T11:35:05;10.60;99.90
13892;DHT22;7016;48.172;8.058;2024-02-21T11:37:51;10.50;99.90
13892;DHT22;7016;48.172;8.058;2024-02-21T11:40:44;10.60;99.90
13892;DHT22;7016;48.172;8.058;2024-02-21T11:43:30;10.70;99.90
13892;DHT22;7016;48.172;8.058;2024-02-21T11:46:17;10.70;99.90
13892;DHT22;7016;48.172;8.058;2024-02-21T11:49:03;10.80;99.90
13892;DHT22;7016;48.172;8.058;2024-02-21T11:51:58;10.80;99.90
13892;DHT22;7016;48.172;8.058;2024-02-21T11:54:45;10.90;99.90
13892;DHT22;7016;48.172;8.058;2024-02-21T11:57:32;10.90;99.90
13892;DHT22;7016;48.172;8.058;2024-02-21T12:00:19;10.90;99.90
13892;DHT22;7016;48.172;8.058;2024-02-21T12:03:10;11.00;99.90
13892;DHT22;7016;48.172;8.058;2024-02-21T12:05:57;11.00;99.90
13892;DHT22;7016;48.172;8.058;2024-02-21T12:08:44;11.00;99.90
13892;DHT22;7016;48.172;8.058;2024-02-21T12:11:31;11.10;99.90
13892;DHT22;7016;48.172;8.058;2024-02-21T12:14:18;11.20;99.90
13892;DHT22;7016;48.172;8.058;2024-02-21T12:17:04;11.20;99.90
13892;DHT22;7016;48.172;8.058;2024-02-21T12:19:51;11.30;99.90
13892;DHT22;7016;48.172;8.058;2024-02-21T12:22:43;11.50;99.90
13892;DHT22;7016;48.172;8.058;2024-02-21T12:25:29;11.60;99.90
13892;DHT22;7016;48.172;8.058;2024-02-21T12:28:16;11.60;99.90
13892;DHT22;7016;48.172;8.058;2024-02-21T12:31:03;11.60;99.90
13892;DHT22;7016;48.172;8.058;2024-02-21T12:33:49;11.60;99.90
13892;DHT22;7016;48.172;8.058;2024-02-21T12:36:42;11.50;99.90
13892;DHT22;7016;48.172;8.058;2024-02-21T12:39:29;11.60;99.90
13892;DHT22;7016;48.172;8.058;2024-02-21T12:42:15;11.60;99.40
13892;DHT22;7016;48.172;8.058;2024-02-21T12:45:02;11.60;99.90
13892;DHT22;7016;48.172;8.058;2024-02-21T12:47:49;11.70;99.50
13892;DHT22;7016;48.172;8.058;2024-02-21T12:50:35;11.60;99.10
13892;DHT22;7016;48.172;8.058;2024-02-21T12:53:21;11.60;99.40
13892;DHT22;7016;48.172;8.058;2024-02-21T12:56:09;11.80;99.70
13892;DHT22;7016;48.172;8.058;2024-02-21T12:58:55;11.80;99.90
13892;DHT22;7016;48.172;8.058;2024-02-21T13:01:41;11.90;99.40
13892;DHT22;7016;48.172;8.058;2024-02-21T13:04:27;11.80;99.00
13892;DHT22;7016;48.172;8.058;2024-02-21T13:07:14;11.70;99.60
13892;DHT22;7016;48.172;8.058;2024-02-21T13:10:01;11.80;99.90
13892;DHT22;7016;48.172;8.058;2024-02-21T13:12:47;11.80;99.60
13892;DHT22;7016;48.172;8.058;2024-02-21T13:15:33;11.80;99.90
13892;DHT22;7016;48.172;8.058;2024-02-21T13:18:20;11.80;99.60
13892;DHT22;7016;48.172;8.058;2024-02-21T13:21:06;11.90;99.90
13892;DHT22;7016;48.172;8.058;2024-02-21T13:23:52;11.90;99.70
13892;DHT22;7016;48.172;8.058;2024-02-21T13:26:43;12.00;99.40
13892;DHT22;7016;48.172;8.058;2024-02-21T13:29:33;12.00;99.90
13892;DHT22;7016;48.172;8.058;2024-02-21T13:32:20;12.10;99.90
13892;DHT22;7016;48.172;8.058;2024-02-21T13:35:06;12.20;99.90
13892;DHT22;7016;48.172;8.058;2024-02-21T13:37:52;12.30;99.30
13892;DHT22;7016;48.172;8.058;2024-02-21T13:40:38;12.20;98.80
13892;DHT22;7016;48.172;8.058;2024-02-21T13:43:25;12.10;99.10
13892;DHT22;7016;48.172;8.058;2024-02-21T13:46:11;12.00;98.90
13892;DHT22;7016;48.172;8.058;2024-02-21T13:49:04;12.00;99.30
13892;DHT22;7016;48.172;8.058;2024-02-21T13:51:55;12.20;98.60
13892;DHT22;7016;48.172;8.058;2024-02-21T13:54:41;12.20;99.30
13892;DHT22;7016;48.172;8.058;2024-02-21T13:57:28;12.20;99.40
13892;DHT22;7016;48.172;8.058;2024-02-21T14:00:15;12.20;98.70
13892;DHT22;7016;48.172;8.058;2024-02-21T14:03:01;12.30;99.10
13892;DHT22;7016;48.172;8.058;2024-02-21T14:05:49;12.30;97.40
13892;DHT22;7016;48.172;8.058;2024-02-21T14:08:35;12.20;97.60
13892;DHT22;7016;48.172;8.058;2024-02-21T14:11:22;12.30;98.10
13892;DHT22;7016;48.172;8.058;2024-02-21T14:14:09;12.40;97.60
13892;DHT22;7016;48.172;8.058;2024-02-21T14:16:55;12.60;98.10
13892;DHT22;7016;48.172;8.058;2024-02-21T14:19:42;12.60;98.10
13892;DHT22;7016;48.172;8.058;2024-02-21T14:22:28;12.60;96.30
13892;DHT22;7016;48.172;8.058;2024-02-21T14:25:16;12.50;96.50
13892;DHT22;7016;48.172;8.058;2024-02-21T14:28:03;12.50;96.10
13892;DHT22;7016;48.172;8.058;2024-02-21T14:30:49;12.50;96.00
13892;DHT22;7016;48.172;8.058;2024-02-21T14:33:40;12.60;96.60
13892;DHT22;7016;48.172;8.058;2024-02-21T14:36:26;12.60;94.30
13892;DHT22;7016;48.172;8.058;2024-02-21T14:39:13;12.60;95.10
13892;DHT22;7016;48.172;8.058;2024-02-21T14:41:59;12.50;95.40
13892;DHT22;7016;48.172;8.058;2024-02-21T14:44:45;12.50;95.50
13892;DHT22;7016;48.172;8.058;2024-02-21T14:47:32;12.60;93.60
13892;DHT22;7016;48.172;8.058;2024-02-21T14:50:19;12.70;94.40
13892;DHT22;7016;48.172;8.058;2024-02-21T14:53:05;12.60;93.10
13892;DHT22;7016;48.172;8.058;2024-02-21T14:55:51;12.60;93.60
13892;DHT22;7016;48.172;8.058;2024-02-21T14:58:37;12.60;93.80
13892;DHT22;7016;48.172;8.058;2024-02-21T15:01:23;12.70;93.40
13892;DHT22;7016;48.172;8.058;2024-02-21T15:04:11;12.50;92.70
13892;DHT22;7016;48.172;8.058;2024-02-21T15:06:57;12.70;91.20
13892;DHT22;7016;48.172;8.058;2024-02-21T15:09:43;12.70;91.60
13892;DHT22;7016;48.172;8.058;2024-02-21T15:12:30;12.40;91.40
13892;DHT22;7016;48.172;8.058;2024-02-21T15:15:17;12.40;90.90
13892;DHT22;7016;48.172;8.058;2024-02-21T15:18:03;12.40;91.00
13892;DHT22;7016;48.172;8.058;2024-02-21T15:20:52;12.50;91.20
13892;DHT22;7016;48.172;8.058;2024-02-21T15:23:38;12.50;90.20
13892;DHT22;7016;48.172;8.058;2024-02-21T15:26:31;12.40;90.00
13892;DHT22;7016;48.172;8.058;2024-02-21T15:29:18;12.40;88.80
13892;DHT22;7016;48.172;8.058;2024-02-21T15:32:04;12.30;90.10
13892;DHT22;7016;48.172;8.058;2024-02-21T15:34:50;12.40;89.90
13892;DHT22;7016;48.172;8.058;2024-02-21T15:37:37;12.50;85.90
13892;DHT22;7016;48.172;8.058;2024-02-21T15:40:23;12.50;86.40
13892;DHT22;7016;48.172;8.058;2024-02-21T15:43:09;12.60;85.00
13892;DHT22;7016;48.172;8.058;2024-02-21T15:45:55;12.50;81.30
13892;DHT22;7016;48.172;8.058;2024-02-21T15:48:42;12.50;81.70
13892;DHT22;7016;48.172;8.058;2024-02-21T15:51:33;11.90;80.70
13892;DHT22;7016;48.172;8.058;2024-02-21T15:54:26;12.50;80.30
13892;DHT22;7016;48.172;8.058;2024-02-21T15:57:13;12.60;79.20
13892;DHT22;7016;48.172;8.058;2024-02-21T16:00:00;12.60;81.00
13892;DHT22;7016;48.172;8.058;2024-02-21T16:02:51;12.50;79.90
13892;DHT22;7016;48.172;8.058;2024-02-21T16:05:46;12.60;79.20
13892;DHT22;7016;48.172;8.058;2024-02-21T16:08:33;12.60;80.50
13892;DHT22;7016;48.172;8.058;2024-02-21T16:11:22;12.60;78.30
13892;DHT22;7016;48.172;8.058;2024-02-21T16:14:08;12.60;76.50
13892;DHT22;7016;48.172;8.058;2024-02-21T16:16:55;12.60;75.00
13892;DHT22;7016;48.172;8.058;2024-02-21T16:19:42;12.60;75.40
13892;DHT22;7016;48.172;8.058;2024-02-21T16:22:29;12.80;75.80
13892;DHT22;7016;48.172;8.058;2024-02-21T16:25:15;12.90;75.70
13892;DHT22;7016;48.172;8.058;2024-02-21T16:28:04;12.80;74.80
13892;DHT22;7016;48.172;8.058;2024-02-21T16:30:50;12.90;77.80
13892;DHT22;7016;48.172;8.058;2024-02-21T16:33:37;12.80;75.90
13892;DHT22;7016;48.172;8.058;2024-02-21T16:36:24;12.80;73.10
13892;DHT22;7016;48.172;8.058;2024-02-21T16:39:11;12.80;74.10
13892;DHT22;7016;48.172;8.058;2024-02-21T16:41:57;12.80;76.20
13892;DHT22;7016;48.172;8.058;2024-02-21T16:44:48;12.90;76.60
13892;DHT22;7016;48.172;8.058;2024-02-21T16:47:36;13.00;75.90
13892;DHT22;7016;48.172;8.058;2024-02-21T16:50:22;12.90;77.50
13892;DHT22;7016;48.172;8.058;2024-02-21T16:53:08;12.90;77.20
13892;DHT22;7016;48.172;8.058;2024-02-21T16:55:55;13.00;79.40
13892;DHT22;7016;48.172;8.058;2024-02-21T16:58:41;13.00;80.50
13892;DHT22;7016;48.172;8.058;2024-02-21T17:01:27;12.90;79.00
13892;DHT22;7016;48.172;8.058;2024-02-21T17:04:16;13.00;80.60
13892;DHT22;7016;48.172;8.058;2024-02-21T17:07:04;13.00;81.20
13892;DHT22;7016;48.172;8.058;2024-02-21T17:09:50;13.10;80.30
13892;DHT22;7016;48.172;8.058;2024-02-21T17:12:36;13.10;80.70
13892;DHT22;7016;48.172;8.058;2024-02-21T17:15:23;13.10;81.00
13892;DHT22;7016;48.172;8.058;2024-02-21T17:18:09;13.10;84.70
13892;DHT22;7016;48.172;8.058;2024-02-21T17:20:55;13.10;84.60
13892;DHT22;7016;48.172;8.058;2024-02-21T17:23:41;13.10;91.10
13892;DHT22;7016;48.172;8.058;2024-02-21T17:26:28;13.10;89.30
13892;DHT22;7016;48.172;8.058;2024-02-21T17:29:14;13.20;89.70
13892;DHT22;7016;48.172;8.058;2024-02-21T17:32:01;13.10;91.00
13892;DHT22;7016;48.172;8.058;2024-02-21T17:34:47;12.80;93.40
13892;DHT22;7016;48.172;8.058;2024-02-21T17:37:34;12.80;94.70
13892;DHT22;7016;48.172;8.058;2024-02-21T17:40:20;12.80;94.30
13892;DHT22;7016;48.172;8.058;2024-02-21T17:43:06;12.70;94.50
13892;DHT22;7016;48.172;8.058;2024-02-21T17:45:52;12.80;96.50
13892;DHT22;7016;48.172;8.058;2024-02-21T17:48:42;12.80;96.90
13892;DHT22;7016;48.172;8.058;2024-02-21T17:51:28;12.80;96.70
13892;DHT22;7016;48.172;8.058;2024-02-21T17:54:14;12.70;98.70
13892;DHT22;7016;48.172;8.058;2024-02-21T17:57:02;12.70;96.10
13892;DHT22;7016;48.172;8.058;2024-02-21T17:59:48;12.60;96.80
13892;DHT22;7016;48.172;8.058;2024-02-21T18:02:34;12.50;96.80
13892;DHT22;7016;48.172;8.058;2024-02-21T18:05:20;12.50;98.50